sensor_id;sensor_type;location;lat;lon;timestamp;pressure;altitude;pressure_sealevel;temperature;humidity
68628;BME280;55611;48.602;9.490;2022-11-11T00:01:01;98300;;;9.3;62.5
68628;BME280;55611;48.602;9.490;2022-11-11T00:03:31;98300;;;9.2;62.5
68628;BME280;55611;48.602;9.490;2022-11-11T00:06:02;98300;;;9.1;62.5
68628;BME280;55611;48.602;9.490;2022-11-11T00:08:32;98290;;;9;62
68628;BME280;55611;48.602;9.490;2022-11-11T00:11:04;98290;;;8.9;62
68628;BME280;55611;48.602;9.490;2022-11-11T00:13:33;98290;;;8.9;62
68628;BME280;55611;48.602;9.490;2022-11-11T00:16:05;98280;;;9;62
68628;BME280;55611;48.602;9.490;2022-11-11T00:18:34;98280;;;8.9;62
68628;BME280;55611;48.602;9.490;2022-11-11T00:21:07;98280;;;8.9;62
68628;BME280;55611;48.602;9.490;2022-11-11T00:23:35;98280;;;9;62
68628;BME280;55611;48.602;9.490;2022-11-11T00:26:06;98290;;;9;62
68628;BME280;55611;48.602;9.490;2022-11-11T00:28:36;98290;;;9.1;62
68628;BME280;55611;48.602;9.490;2022-11-11T00:31:08;98290;;;9.2;62
68628;BME280;55611;48.602;9.490;2022-11-11T00:33:37;98290;;;9.3;62
68628;BME280;55611;48.602;9.490;2022-11-11T00:36:08;98290;;;9.4;62
68628;BME280;55611;48.602;9.490;2022-11-11T00:38:39;98290;;;9.4;62
68628;BME280;55611;48.602;9.490;2022-11-11T00:41:09;98300;;;9.3;62
68628;BME280;55611;48.602;9.490;2022-11-11T00:43:39;98300;;;9.3;62
68628;BME280;55611;48.602;9.490;2022-11-11T00:46:10;98300;;;9.3;62
68628;BME280;55611;48.602;9.490;2022-11-11T00:48:40;98310;;;9.2;62
68628;BME280;55611;48.602;9.490;2022-11-11T00:51:11;98320;;;9;62
68628;BME280;55611;48.602;9.490;2022-11-11T00:53:41;98320;;;9;62
68628;BME280;55611;48.602;9.490;2022-11-11T00:56:12;98320;;;9;62
68628;BME280;55611;48.602;9.490;2022-11-11T00:58:42;98330;;;8.9;62
68628;BME280;55611;48.602;9.490;2022-11-11T01:01:13;98330;;;8.9;62
68628;BME280;55611;48.602;9.490;2022-11-11T01:03:43;98340;;;8.8;62
68628;BME280;55611;48.602;9.490;2022-11-11T01:06:14;98340;;;8.7;62
68628;BME280;55611;48.602;9.490;2022-11-11T01:08:45;98340;;;8.6;62
68628;BME280;55611;48.602;9.490;2022-11-11T01:11:16;98340;;;8.6;62
68628;BME280;55611;48.602;9.490;2022-11-11T01:13:45;98330;;;8.6;62
68628;BME280;55611;48.602;9.490;2022-11-11T01:16:17;98340;;;8.6;62
68628;BME280;55611;48.602;9.490;2022-11-11T01:18:47;98350;;;8.7;62
68628;BME280;55611;48.602;9.490;2022-11-11T01:21:18;98340;;;8.8;62
68628;BME280;55611;48.602;9.490;2022-11-11T01:23:48;98340;;;8.8;62
68628;BME280;55611;48.602;9.490;2022-11-11T01:26:20;98340;;;8.8;62
68628;BME280;55611;48.602;9.490;2022-11-11T01:28:49;98340;;;8.8;62
68628;BME280;55611;48.602;9.490;2022-11-11T01:31:20;98330;;;8.7;62
68628;BME280;55611;48.602;9.490;2022-11-11T01:33:50;98320;;;8.7;62
68628;BME280;55611;48.602;9.490;2022-11-11T01:36:21;98320;;;8.6;62
68628;BME280;55611;48.602;9.490;2022-11-11T01:38:52;98320;;;8.6;62
68628;BME280;55611;48.602;9.490;2022-11-11T01:41:25;98320;;;8.5;62
68628;BME280;55611;48.602;9.490;2022-11-11T01:43:52;98310;;;8.5;62
68628;BME280;55611;48.602;9.490;2022-11-11T01:47:25;98310;;;8.5;62
68628;BME280;55611;48.602;9.490;2022-11-11T01:48:58;98300;;;8.6;62
68628;BME280;55611;48.602;9.490;2022-11-11T01:51:26;98300;;;8.7;62
68628;BME280;55611;48.602;9.490;2022-11-11T01:53:56;98310;;;8.8;62
68628;BME280;55611;48.602;9.490;2022-11-11T01:56:25;98310;;;8.8;62
68628;BME280;55611;48.602;9.490;2022-11-11T01:58:56;98310;;;8.9;62
68628;BME280;55611;48.602;9.490;2022-11-11T02:01:25;98320;;;9;62
68628;BME280;55611;48.602;9.490;2022-11-11T02:03:56;98320;;;9.1;62
68628;BME280;55611;48.602;9.490;2022-11-11T02:06:26;98320;;;9.2;62.5
68628;BME280;55611;48.602;9.490;2022-11-11T02:08:57;98310;;;9.2;62.5
68628;BME280;55611;48.602;9.490;2022-11-11T02:11:27;98320;;;9.2;62
68628;BME280;55611;48.602;9.490;2022-11-11T02:13:58;98320;;;9.2;62
68628;BME280;55611;48.602;9.490;2022-11-11T02:16:28;98320;;;9;62
68628;BME280;55611;48.602;9.490;2022-11-11T02:18:59;98320;;;8.9;62
68628;BME280;55611;48.602;9.490;2022-11-11T02:21:34;98320;;;8.8;62
68628;BME280;55611;48.602;9.490;2022-11-11T02:24:02;98320;;;8.7;62
68628;BME280;55611;48.602;9.490;2022-11-11T02:26:31;98320;;;8.7;62
68628;BME280;55611;48.602;9.490;2022-11-11T02:29:01;98320;;;8.6;62
68628;BME280;55611;48.602;9.490;2022-11-11T02:31:32;98330;;;8.6;62
68628;BME280;55611;48.602;9.490;2022-11-11T02:34:02;98330;;;8.6;62
68628;BME280;55611;48.602;9.490;2022-11-11T02:36:32;98330;;;8.7;62
68628;BME280;55611;48.602;9.490;2022-11-11T02:39:03;98330;;;8.7;62
68628;BME280;55611;48.602;9.490;2022-11-11T02:41:34;98340;;;8.7;62
68628;BME280;55611;48.602;9.490;2022-11-11T02:44:04;98340;;;8.6;62
68628;BME280;55611;48.602;9.490;2022-11-11T02:46:35;98330;;;8.5;62
68628;BME280;55611;48.602;9.490;2022-11-11T02:49:05;98330;;;8.4;62
68628;BME280;55611;48.602;9.490;2022-11-11T02:51:36;98330;;;8.3;62
68628;BME280;55611;48.602;9.490;2022-11-11T02:54:06;98330;;;8.3;62
68628;BME280;55611;48.602;9.490;2022-11-11T02:56:37;98330;;;8.2;62.5
68628;BME280;55611;48.602;9.490;2022-11-11T02:59:07;98330;;;8.3;62
68628;BME280;55611;48.602;9.490;2022-11-11T03:01:38;98330;;;8.3;62
68628;BME280;55611;48.602;9.490;2022-11-11T03:04:08;98330;;;8.3;62.5
68628;BME280;55611;48.602;9.490;2022-11-11T03:06:39;98330;;;8.3;62
68628;BME280;55611;48.602;9.490;2022-11-11T03:09:09;98330;;;8.3;62
68628;BME280;55611;48.602;9.490;2022-11-11T03:11:40;98340;;;8.3;62
68628;BME280;55611;48.602;9.490;2022-11-11T03:14:10;98340;;;8.4;62
68628;BME280;55611;48.602;9.490;2022-11-11T03:16:41;98340;;;8.4;62
68628;BME280;55611;48.602;9.490;2022-11-11T03:19:11;98330;;;8.5;62
68628;BME280;55611;48.602;9.490;2022-11-11T03:21:42;98330;;;8.4;62
68628;BME280;55611;48.602;9.490;2022-11-11T03:24:12;98330;;;8.4;62
68628;BME280;55611;48.602;9.490;2022-11-11T03:26:43;98310;;;8.4;62
68628;BME280;55611;48.602;9.490;2022-11-11T03:29:13;98310;;;8.3;62
68628;BME280;55611;48.602;9.490;2022-11-11T03:31:44;98310;;;8.2;62.5
68628;BME280;55611;48.602;9.490;2022-11-11T03:34:14;98300;;;8.2;62.5
68628;BME280;55611;48.602;9.490;2022-11-11T03:36:45;98300;;;8.2;62.5
68628;BME280;55611;48.602;9.490;2022-11-11T03:39:15;98300;;;8.1;62.5
68628;BME280;55611;48.602;9.490;2022-11-11T03:41:46;98300;;;8.2;62.5
68628;BME280;55611;48.602;9.490;2022-11-11T03:44:16;98290;;;8.2;62.5
68628;BME280;55611;48.602;9.490;2022-11-11T03:46:47;98300;;;8.2;62.5
68628;BME280;55611;48.602;9.490;2022-11-11T03:49:17;98300;;;8.3;62.5
68628;BME280;55611;48.602;9.490;2022-11-11T03:51:48;98300;;;8.4;62
68628;BME280;55611;48.602;9.490;2022-11-11T03:54:19;98290;;;8.5;62
68628;BME280;55611;48.602;9.490;2022-11-11T03:56:49;98290;;;8.5;62.5
68628;BME280;55611;48.602;9.490;2022-11-11T03:59:19;98290;;;8.5;62.5
68628;BME280;55611;48.602;9.490;2022-11-11T04:01:50;98300;;;8.5;62.5
68628;BME280;55611;48.602;9.490;2022-11-11T04:04:21;98300;;;8.5;62.5
68628;BME280;55611;48.602;9.490;2022-11-11T04:06:51;98300;;;8.5;62.5
68628;BME280;55611;48.602;9.490;2022-11-11T04:09:22;98300;;;8.5;62.5
68628;BME280;55611;48.602;9.490;2022-11-11T04:11:52;98310;;;8.5;62.5
68628;BME280;55611;48.602;9.490;2022-11-11T04:14:23;98320;;;8.5;62.5
68628;BME280;55611;48.602;9.490;2022-11-11T04:16:53;98330;;;8.5;62.5
68628;BME280;55611;48.602;9.490;2022-11-11T04:19:24;98330;;;8.6;62.5
68628;BME280;55611;48.602;9.490;2022-11-11T04:21:54;98340;;;8.6;62.5
68628;BME280;55611;48.602;9.490;2022-11-11T04:24:25;98340;;;8.6;62.5
68628;BME280;55611;48.602;9.490;2022-11-11T04:26:56;98340;;;8.6;62.5
68628;BME280;55611;48.602;9.490;2022-11-11T04:29:26;98340;;;8.5;62.5
68628;BME280;55611;48.602;9.490;2022-11-11T04:31:58;98340;;;8.4;62.5
68628;BME280;55611;48.602;9.490;2022-11-11T04:34:27;98350;;;8.3;62.5
68628;BME280;55611;48.602;9.490;2022-11-11T04:36:57;98350;;;8.3;62.5
68628;BME280;55611;48.602;9.490;2022-11-11T04:39:28;98350;;;8.3;62.5
68628;BME280;55611;48.602;9.490;2022-11-11T04:41:58;98350;;;8.2;62.5
68628;BME280;55611;48.602;9.490;2022-11-11T04:44:29;98350;;;8.1;62.5
68628;BME280;55611;48.602;9.490;2022-11-11T04:46:59;98350;;;8.2;62.5
68628;BME280;55611;48.602;9.490;2022-11-11T04:49:30;98350;;;8.3;62.5
68628;BME280;55611;48.602;9.490;2022-11-11T04:52:00;98350;;;8.3;62.5
68628;BME280;55611;48.602;9.490;2022-11-11T04:54:31;98350;;;8.3;62.5
68628;BME280;55611;48.602;9.490;2022-11-11T04:57:01;98350;;;8.2;62.5
68628;BME280;55611;48.602;9.490;2022-11-11T04:59:32;98350;;;8.1;62.5
68628;BME280;55611;48.602;9.490;2022-11-11T05:02:02;98340;;;8.1;62.5
68628;BME280;55611;48.602;9.490;2022-11-11T05:04:33;98350;;;8;62.5
68628;BME280;55611;48.602;9.490;2022-11-11T05:07:03;98340;;;7.9;62.5
68628;BME280;55611;48.602;9.490;2022-11-11T05:09:34;98340;;;7.8;62
68628;BME280;55611;48.602;9.490;2022-11-11T05:12:04;98350;;;7.9;62
68628;BME280;55611;48.602;9.490;2022-11-11T05:14:35;98350;;;7.9;62
68628;BME280;55611;48.602;9.490;2022-11-11T05:17:07;98360;;;8;62
68628;BME280;55611;48.602;9.490;2022-11-11T05:19:36;98370;;;7.9;62
68628;BME280;55611;48.602;9.490;2022-11-11T05:22:08;98380;;;7.8;62.5
68628;BME280;55611;48.602;9.490;2022-11-11T05:24:37;98390;;;7.7;62.5
68628;BME280;55611;48.602;9.490;2022-11-11T05:27:07;98400;;;7.6;62.5
68628;BME280;55611;48.602;9.490;2022-11-11T05:29:38;98410;;;7.6;62.5
68628;BME280;55611;48.602;9.490;2022-11-11T05:32:09;98420;;;7.6;62.5
68628;BME280;55611;48.602;9.490;2022-11-11T05:34:39;98420;;;7.7;62.5
68628;BME280;55611;48.602;9.490;2022-11-11T05:37:10;98430;;;7.8;62.5
68628;BME280;55611;48.602;9.490;2022-11-11T05:39:40;98430;;;7.9;62.5
68628;BME280;55611;48.602;9.490;2022-11-11T05:42:11;98440;;;7.9;62.5
68628;BME280;55611;48.602;9.490;2022-11-11T05:44:41;98440;;;8;62.5
68628;BME280;55611;48.602;9.490;2022-11-11T05:47:12;98440;;;8;62.5
68628;BME280;55611;48.602;9.490;2022-11-11T05:49:42;98440;;;8.1;62.5
68628;BME280;55611;48.602;9.490;2022-11-11T05:52:13;98430;;;8.1;62.5
68628;BME280;55611;48.602;9.490;2022-11-11T05:54:43;98430;;;8.1;62.5
68628;BME280;55611;48.602;9.490;2022-11-11T05:57:14;98420;;;8.1;62.5
68628;BME280;55611;48.602;9.490;2022-11-11T05:59:44;98430;;;8.1;62.5
68628;BME280;55611;48.602;9.490;2022-11-11T06:02:15;98430;;;8.1;62.5
68628;BME280;55611;48.602;9.490;2022-11-11T06:04:45;98430;;;8.1;62.5
68628;BME280;55611;48.602;9.490;2022-11-11T06:07:16;98440;;;8.1;62.5
68628;BME280;55611;48.602;9.490;2022-11-11T06:09:46;98440;;;8.1;62.5
68628;BME280;55611;48.602;9.490;2022-11-11T06:12:17;98440;;;8;62.5
68628;BME280;55611;48.602;9.490;2022-11-11T06:14:47;98450;;;8;62.5
68628;BME280;55611;48.602;9.490;2022-11-11T06:17:18;98460;;;7.8;62.5
68628;BME280;55611;48.602;9.490;2022-11-11T06:19:48;98470;;;7.8;62.5
68628;BME280;55611;48.602;9.490;2022-11-11T06:22:19;98470;;;7.7;62.5
68628;BME280;55611;48.602;9.490;2022-11-11T06:24:49;98480;;;7.7;62.5
68628;BME280;55611;48.602;9.490;2022-11-11T06:27:20;98480;;;7.7;62.5
68628;BME280;55611;48.602;9.490;2022-11-11T06:29:50;98480;;;7.6;62.5
68628;BME280;55611;48.602;9.490;2022-11-11T06:32:21;98490;;;7.6;62.5
68628;BME280;55611;48.602;9.490;2022-11-11T06:34:51;98480;;;7.6;62.5
68628;BME280;55611;48.602;9.490;2022-11-11T06:37:22;98480;;;7.7;62.5
68628;BME280;55611;48.602;9.490;2022-11-11T06:39:52;98480;;;7.6;62.5
68628;BME280;55611;48.602;9.490;2022-11-11T06:42:23;98480;;;7.8;62.5
68628;BME280;55611;48.602;9.490;2022-11-11T06:44:53;98470;;;7.9;62.5
68628;BME280;55611;48.602;9.490;2022-11-11T06:47:24;98470;;;8;62.5
68628;BME280;55611;48.602;9.490;2022-11-11T06:49:55;98470;;;8.1;62.5
68628;BME280;55611;48.602;9.490;2022-11-11T06:52:25;98480;;;8.2;62.5
68628;BME280;55611;48.602;9.490;2022-11-11T06:54:56;98480;;;8.2;62.5
68628;BME280;55611;48.602;9.490;2022-11-11T06:57:26;98490;;;8.3;62.5
68628;BME280;55611;48.602;9.490;2022-11-11T06:59:57;98490;;;8.2;62.5
68628;BME280;55611;48.602;9.490;2022-11-11T07:02:27;98490;;;8;62.5
68628;BME280;55611;48.602;9.490;2022-11-11T07:04:58;98490;;;7.9;62.5
68628;BME280;55611;48.602;9.490;2022-11-11T07:07:28;98500;;;7.9;62.5
68628;BME280;55611;48.602;9.490;2022-11-11T07:09:59;98500;;;7.9;62.5
68628;BME280;55611;48.602;9.490;2022-11-11T07:12:32;98500;;;7.9;62.5
68628;BME280;55611;48.602;9.490;2022-11-11T07:15:00;98500;;;8.1;62.5
68628;BME280;55611;48.602;9.490;2022-11-11T07:17:30;98500;;;8.1;62.5
68628;BME280;55611;48.602;9.490;2022-11-11T07:22:34;98500;;;8.5;62.5
68628;BME280;55611;48.602;9.490;2022-11-11T07:25:02;98500;;;8.6;62.5
68628;BME280;55611;48.602;9.490;2022-11-11T07:27:36;98510;;;8.7;62.5
68628;BME280;55611;48.602;9.490;2022-11-11T07:30:03;98510;;;8.9;62.5
68628;BME280;55611;48.602;9.490;2022-11-11T07:32:33;98500;;;9;62.5
68628;BME280;55611;48.602;9.490;2022-11-11T07:35:04;98510;;;9;62.5
68628;BME280;55611;48.602;9.490;2022-11-11T07:37:35;98500;;;8.9;62.5
68628;BME280;55611;48.602;9.490;2022-11-11T07:40:05;98500;;;8.8;62.5
68628;BME280;55611;48.602;9.490;2022-11-11T07:42:36;98500;;;8.7;62.5
68628;BME280;55611;48.602;9.490;2022-11-11T07:45:06;98500;;;8.6;62.5
68628;BME280;55611;48.602;9.490;2022-11-11T07:47:36;98510;;;8.5;62.5
68628;BME280;55611;48.602;9.490;2022-11-11T07:50:07;98510;;;8.4;62.5
68628;BME280;55611;48.602;9.490;2022-11-11T07:52:37;98510;;;8.3;62.5
68628;BME280;55611;48.602;9.490;2022-11-11T07:55:08;98510;;;8.3;62.5
68628;BME280;55611;48.602;9.490;2022-11-11T07:57:38;98510;;;8.3;62.5
68628;BME280;55611;48.602;9.490;2022-11-11T08:00:09;98500;;;8.5;62.5
68628;BME280;55611;48.602;9.490;2022-11-11T08:02:40;98500;;;8.8;62.5
68628;BME280;55611;48.602;9.490;2022-11-11T08:05:10;98500;;;9;62.5
68628;BME280;55611;48.602;9.490;2022-11-11T08:07:41;98510;;;9.2;63
68628;BME280;55611;48.602;9.490;2022-11-11T08:10:11;98500;;;9.4;63
68628;BME280;55611;48.602;9.490;2022-11-11T08:12:41;98500;;;9.6;63
68628;BME280;55611;48.602;9.490;2022-11-11T08:15:12;98510;;;9.7;63
68628;BME280;55611;48.602;9.490;2022-11-11T08:17:43;98500;;;9.6;63
68628;BME280;55611;48.602;9.490;2022-11-11T08:20:13;98500;;;9.6;63
68628;BME280;55611;48.602;9.490;2022-11-11T08:22:44;98500;;;9.6;63
68628;BME280;55611;48.602;9.490;2022-11-11T08:25:14;98490;;;9.5;63
68628;BME280;55611;48.602;9.490;2022-11-11T08:27:45;98490;;;9.5;63
68628;BME280;55611;48.602;9.490;2022-11-11T08:30:15;98490;;;9.5;63
68628;BME280;55611;48.602;9.490;2022-11-11T08:32:46;98480;;;9.6;63
68628;BME280;55611;48.602;9.490;2022-11-11T08:35:16;98470;;;9.8;63
68628;BME280;55611;48.602;9.490;2022-11-11T08:37:47;98480;;;9.8;63
68628;BME280;55611;48.602;9.490;2022-11-11T08:40:17;98470;;;10;63
68628;BME280;55611;48.602;9.490;2022-11-11T08:45:18;98460;;;10;63.5
68628;BME280;55611;48.602;9.490;2022-11-11T08:47:49;98460;;;9.8;63.5
68628;BME280;55611;48.602;9.490;2022-11-11T08:50:19;98460;;;9.8;63.5
68628;BME280;55611;48.602;9.490;2022-11-11T08:52:51;98460;;;9.7;63.5
68628;BME280;55611;48.602;9.490;2022-11-11T08:55:20;98470;;;9.6;63.5
68628;BME280;55611;48.602;9.490;2022-11-11T08:57:58;98480;;;9.5;63.5
68628;BME280;55611;48.602;9.490;2022-11-11T09:00:21;98480;;;9.5;63.5
68628;BME280;55611;48.602;9.490;2022-11-11T09:02:52;98490;;;9.5;63.5
68628;BME280;55611;48.602;9.490;2022-11-11T09:05:22;98490;;;9.4;63.5
68628;BME280;55611;48.602;9.490;2022-11-11T09:07:53;98500;;;9.5;63.5
68628;BME280;55611;48.602;9.490;2022-11-11T09:10:23;98500;;;9.7;63
68628;BME280;55611;48.602;9.490;2022-11-11T09:12:55;98510;;;9.7;63
68628;BME280;55611;48.602;9.490;2022-11-11T09:15:24;98510;;;9.8;63
68628;BME280;55611;48.602;9.490;2022-11-11T09:17:55;98510;;;10;63
68628;BME280;55611;48.602;9.490;2022-11-11T09:20:26;98500;;;10.1;63
68628;BME280;55611;48.602;9.490;2022-11-11T09:22:56;98500;;;10.2;63
68628;BME280;55611;48.602;9.490;2022-11-11T09:25:26;98510;;;10.2;63.5
68628;BME280;55611;48.602;9.490;2022-11-11T09:27:58;98500;;;10.3;63
68628;BME280;55611;48.602;9.490;2022-11-11T09:30:28;98500;;;10.5;63.5
68628;BME280;55611;48.602;9.490;2022-11-11T09:33:02;98500;;;10.6;63.5
68628;BME280;55611;48.602;9.490;2022-11-11T09:35:29;98490;;;10.8;63.5
68628;BME280;55611;48.602;9.490;2022-11-11T09:37:59;98490;;;11;63.5
68628;BME280;55611;48.602;9.490;2022-11-11T09:40:36;98490;;;11.1;63.5
68628;BME280;55611;48.602;9.490;2022-11-11T09:44:03;98490;;;11.3;63.5
68628;BME280;55611;48.602;9.490;2022-11-11T09:45:35;98490;;;11.5;63.5
68628;BME280;55611;48.602;9.490;2022-11-11T09:50:32;98490;;;11.7;64
68628;BME280;55611;48.602;9.490;2022-11-11T09:54:06;98480;;;11.6;64
68628;BME280;55611;48.602;9.490;2022-11-11T09:55:35;98480;;;11.6;64
68628;BME280;55611;48.602;9.490;2022-11-11T09:58:05;98480;;;11.6;64
68628;BME280;55611;48.602;9.490;2022-11-11T10:00:34;98470;;;11.7;64
68628;BME280;55611;48.602;9.490;2022-11-11T10:03:10;98480;;;11.6;64
68628;BME280;55611;48.602;9.490;2022-11-11T10:05:38;98470;;;11.6;64
68628;BME280;55611;48.602;9.490;2022-11-11T10:08:10;98470;;;11.7;64
68628;BME280;55611;48.602;9.490;2022-11-11T10:10:51;98470;;;11.8;64
68628;BME280;55611;48.602;9.490;2022-11-11T10:13:11;98470;;;11.8;64
68628;BME280;55611;48.602;9.490;2022-11-11T10:15:40;98460;;;11.9;64
68628;BME280;55611;48.602;9.490;2022-11-11T10:18:10;98460;;;12.1;63.5
68628;BME280;55611;48.602;9.490;2022-11-11T10:20:39;98470;;;12.1;63.5
68628;BME280;55611;48.602;9.490;2022-11-11T10:23:12;98470;;;12.2;63.5
68628;BME280;55611;48.602;9.490;2022-11-11T10:25:41;98460;;;12.3;63.5
68628;BME280;55611;48.602;9.490;2022-11-11T10:28:12;98460;;;12.4;63.5
68628;BME280;55611;48.602;9.490;2022-11-11T10:30:40;98460;;;12.4;63.5
68628;BME280;55611;48.602;9.490;2022-11-11T10:33:14;98460;;;12.5;63.5
68628;BME280;55611;48.602;9.490;2022-11-11T10:35:41;98450;;;12.6;63.5
68628;BME280;55611;48.602;9.490;2022-11-11T10:38:16;98450;;;12.7;63.5
68628;BME280;55611;48.602;9.490;2022-11-11T10:40:45;98460;;;12.8;63.5
68628;BME280;55611;48.602;9.490;2022-11-11T10:43:16;98460;;;12.9;63.5
68628;BME280;55611;48.602;9.490;2022-11-11T10:45:45;98460;;;13;63.5
68628;BME280;55611;48.602;9.490;2022-11-11T10:48:15;98450;;;13.2;63.5
68628;BME280;55611;48.602;9.490;2022-11-11T10:50:46;98450;;;13.3;63.5
68628;BME280;55611;48.602;9.490;2022-11-11T10:53:16;98460;;;13.4;63.5
68628;BME280;55611;48.602;9.490;2022-11-11T10:55:47;98450;;;13.4;63.5
68628;BME280;55611;48.602;9.490;2022-11-11T10:58:21;98450;;;13.4;63.5
68628;BME280;55611;48.602;9.490;2022-11-11T11:00:47;98450;;;13.5;63.5
68628;BME280;55611;48.602;9.490;2022-11-11T11:03:33;98450;;;13.5;63.5
68628;BME280;55611;48.602;9.490;2022-11-11T11:05:56;98450;;;13.6;63.5
68628;BME280;55611;48.602;9.490;2022-11-11T11:08:20;98450;;;13.6;63.5
68628;BME280;55611;48.602;9.490;2022-11-11T11:10:51;98450;;;13.7;63.5
68628;BME280;55611;48.602;9.490;2022-11-11T11:14:23;98440;;;13.7;63.5
68628;BME280;55611;48.602;9.490;2022-11-11T11:15:53;98440;;;13.7;63.5
68628;BME280;55611;48.602;9.490;2022-11-11T11:18:20;98450;;;13.8;63.5
68628;BME280;55611;48.602;9.490;2022-11-11T11:20:53;98440;;;13.9;63.5
68628;BME280;55611;48.602;9.490;2022-11-11T11:23:33;98440;;;13.9;63.5
68628;BME280;55611;48.602;9.490;2022-11-11T11:25:52;98450;;;13.9;63.5
68628;BME280;55611;48.602;9.490;2022-11-11T11:28:22;98440;;;13.9;63.5
68628;BME280;55611;48.602;9.490;2022-11-11T11:31:07;98440;;;14;63.5
68628;BME280;55611;48.602;9.490;2022-11-11T11:33:23;98440;;;14;63.5
68628;BME280;55611;48.602;9.490;2022-11-11T11:35:53;98430;;;14;63.5
68628;BME280;55611;48.602;9.490;2022-11-11T11:38:38;98430;;;14;63.5
68628;BME280;55611;48.602;9.490;2022-11-11T11:40:55;98420;;;14;63.5
68628;BME280;55611;48.602;9.490;2022-11-11T11:43:33;98420;;;14.1;63.5
68628;BME280;55611;48.602;9.490;2022-11-11T11:45:56;98420;;;14.1;63.5
68628;BME280;55611;48.602;9.490;2022-11-11T11:48:33;98420;;;14.3;63.5
68628;BME280;55611;48.602;9.490;2022-11-11T11:51:01;98420;;;14.4;63.5
68628;BME280;55611;48.602;9.490;2022-11-11T11:53:33;98420;;;14.6;63.5
68628;BME280;55611;48.602;9.490;2022-11-11T11:56:08;98410;;;14.7;63.5
68628;BME280;55611;48.602;9.490;2022-11-11T11:58:32;98420;;;14.8;63.5
68628;BME280;55611;48.602;9.490;2022-11-11T12:01:02;98420;;;14.9;63.5
68628;BME280;55611;48.602;9.490;2022-11-11T12:03:36;98410;;;14.8;64
68628;BME280;55611;48.602;9.490;2022-11-11T12:06:02;98430;;;14.8;64
68628;BME280;55611;48.602;9.490;2022-11-11T12:08:36;98420;;;14.9;64
68628;BME280;55611;48.602;9.490;2022-11-11T12:11:04;98430;;;14.9;64
68628;BME280;55611;48.602;9.490;2022-11-11T12:13:44;98430;;;14.8;64
68628;BME280;55611;48.602;9.490;2022-11-11T12:16:05;98430;;;14.8;63.5
68628;BME280;55611;48.602;9.490;2022-11-11T12:18:44;98430;;;14.8;63.5
68628;BME280;55611;48.602;9.490;2022-11-11T12:21:19;98420;;;14.9;63.5
68628;BME280;55611;48.602;9.490;2022-11-11T12:26:06;98420;;;15;63.5
68628;BME280;55611;48.602;9.490;2022-11-11T12:28:39;98420;;;14.9;63.5
68628;BME280;55611;48.602;9.490;2022-11-11T12:31:20;98420;;;14.9;63.5
68628;BME280;55611;48.602;9.490;2022-11-11T12:33:47;98410;;;14.9;63.5
68628;BME280;55611;48.602;9.490;2022-11-11T12:36:07;98420;;;15;63.5
68628;BME280;55611;48.602;9.490;2022-11-11T12:38:43;98410;;;15.1;63.5
68628;BME280;55611;48.602;9.490;2022-11-11T12:41:14;98410;;;15.2;63.5
68628;BME280;55611;48.602;9.490;2022-11-11T12:43:42;98410;;;15.3;63.5
68628;BME280;55611;48.602;9.490;2022-11-11T12:46:20;98400;;;15.4;63.5
68628;BME280;55611;48.602;9.490;2022-11-11T12:48:43;98390;;;15.4;63.5
68628;BME280;55611;48.602;9.490;2022-11-11T12:51:12;98390;;;15.4;63.5
68628;BME280;55611;48.602;9.490;2022-11-11T12:53:46;98390;;;15.5;63.5
68628;BME280;55611;48.602;9.490;2022-11-11T12:56:14;98400;;;15.5;63.5
68628;BME280;55611;48.602;9.490;2022-11-11T13:01:47;98390;;;15.5;63.5
68628;BME280;55611;48.602;9.490;2022-11-11T13:03:47;98390;;;15.6;63.5
68628;BME280;55611;48.602;9.490;2022-11-11T13:08:46;98390;;;15.7;63.5
68628;BME280;55611;48.602;9.490;2022-11-11T13:11:15;98390;;;15.7;63.5
68628;BME280;55611;48.602;9.490;2022-11-11T13:13:48;98390;;;15.8;63.5
68628;BME280;55611;48.602;9.490;2022-11-11T13:16:15;98380;;;15.9;63.5
68628;BME280;55611;48.602;9.490;2022-11-11T13:19:01;98380;;;15.9;63.5
68628;BME280;55611;48.602;9.490;2022-11-11T13:21:17;98380;;;15.9;63.5
68628;BME280;55611;48.602;9.490;2022-11-11T13:23:45;98370;;;15.9;63.5
68628;BME280;55611;48.602;9.490;2022-11-11T13:26:21;98370;;;16;63.5
68628;BME280;55611;48.602;9.490;2022-11-11T13:28:47;98370;;;16;63.5
68628;BME280;55611;48.602;9.490;2022-11-11T13:31:33;98380;;;15.9;63.5
68628;BME280;55611;48.602;9.490;2022-11-11T13:36:19;98390;;;15.8;63.5
68628;BME280;55611;48.602;9.490;2022-11-11T13:38:49;98380;;;15.8;63.5
68628;BME280;55611;48.602;9.490;2022-11-11T13:41:22;98390;;;15.8;63.5
68628;BME280;55611;48.602;9.490;2022-11-11T13:43:50;98390;;;15.8;63.5
68628;BME280;55611;48.602;9.490;2022-11-11T13:46:37;98390;;;15.8;63.5
68628;BME280;55611;48.602;9.490;2022-11-11T13:48:51;98390;;;15.9;63.5
68628;BME280;55611;48.602;9.490;2022-11-11T13:51:24;98380;;;15.9;63.5
68628;BME280;55611;48.602;9.490;2022-11-11T13:53:52;98390;;;15.9;63.5
68628;BME280;55611;48.602;9.490;2022-11-11T13:56:23;98380;;;15.9;63.5
68628;BME280;55611;48.602;9.490;2022-11-11T13:58:53;98380;;;15.9;63.5
68628;BME280;55611;48.602;9.490;2022-11-11T14:01:23;98380;;;15.9;63.5
68628;BME280;55611;48.602;9.490;2022-11-11T14:03:58;98380;;;15.8;63.5
68628;BME280;55611;48.602;9.490;2022-11-11T14:06:28;98380;;;15.8;63.5
68628;BME280;55611;48.602;9.490;2022-11-11T14:08:55;98380;;;15.7;63.5
68628;BME280;55611;48.602;9.490;2022-11-11T14:11:33;98380;;;15.7;63.5
68628;BME280;55611;48.602;9.490;2022-11-11T14:18:56;98400;;;15.7;63.5
68628;BME280;55611;48.602;9.490;2022-11-11T14:21:43;98400;;;15.7;63.5
68628;BME280;55611;48.602;9.490;2022-11-11T14:23:57;98400;;;15.8;63.5
68628;BME280;55611;48.602;9.490;2022-11-11T14:26:28;98400;;;15.8;63.5
68628;BME280;55611;48.602;9.490;2022-11-11T14:28:59;98390;;;15.8;63.5
68628;BME280;55611;48.602;9.490;2022-11-11T14:31:40;98400;;;15.7;63.5
68628;BME280;55611;48.602;9.490;2022-11-11T14:36:37;98410;;;15.6;63.5
68628;BME280;55611;48.602;9.490;2022-11-11T14:39:12;98410;;;15.6;63.5
68628;BME280;55611;48.602;9.490;2022-11-11T14:41:47;98410;;;15.6;63.5
68628;BME280;55611;48.602;9.490;2022-11-11T14:44:40;98410;;;15.5;63.5
68628;BME280;55611;48.602;9.490;2022-11-11T14:46:32;98400;;;15.5;63.5
68628;BME280;55611;48.602;9.490;2022-11-11T14:49:03;98400;;;15.4;63.5
68628;BME280;55611;48.602;9.490;2022-11-11T14:51:35;98390;;;15.3;63
68628;BME280;55611;48.602;9.490;2022-11-11T14:54:04;98400;;;15.3;63
68628;BME280;55611;48.602;9.490;2022-11-11T14:56:34;98400;;;15.2;63
68628;BME280;55611;48.602;9.490;2022-11-11T14:59:06;98400;;;15.1;63